createdAt,value
2019-01-20T00:00:55.738Z,99503.05
2019-01-20T00:03:25.101Z,99510.34
2019-01-20T00:05:54.491Z,99508.85
2019-01-20T00:08:23.854Z,99502.95
2019-01-20T00:10:53.563Z,99503.93
2019-01-20T00:13:23.200Z,99498.34
2019-01-20T00:15:52.841Z,99500.54
2019-01-20T00:18:22.202Z,99502.31
2019-01-20T00:20:51.563Z,99497.75
2019-01-20T00:23:20.985Z,99493.13
2019-01-20T00:25:50.359Z,99499.28
2019-01-20T00:28:19.718Z,99501.34
2019-01-20T00:30:49.393Z,99498.78
2019-01-20T00:33:19.062Z,99493.66
2019-01-20T00:35:48.756Z,99494.03
2019-01-20T00:38:18.653Z,99493.45
2019-01-20T00:40:48.034Z,99492.39
2019-01-20T00:43:17.495Z,99489.39
2019-01-20T00:45:47.195Z,99487.80
2019-01-20T00:48:16.625Z,99489.97
2019-01-20T00:50:45.985Z,99485.27
2019-01-20T00:53:15.380Z,99488.59
2019-01-20T00:55:45.021Z,99486.80
2019-01-20T00:58:14.410Z,99494.53
2019-01-20T01:00:44.120Z,99491.51
2019-01-20T01:03:13.549Z,99486.02
2019-01-20T01:05:42.929Z,99490.75
2019-01-20T01:08:13.046Z,99497.24
2019-01-20T01:10:42.427Z,99496.25
2019-01-20T01:13:11.808Z,99499.36
2019-01-20T01:15:41.256Z,99502.69
2019-01-20T01:18:10.994Z,99499.28
2019-01-20T01:20:40.508Z,99500.78
2019-01-20T01:23:09.964Z,99500.48
2019-01-20T01:25:39.395Z,99501.05
2019-01-20T01:28:08.793Z,99505.03
2019-01-20T01:30:38.497Z,99503.81
2019-01-20T01:33:08.165Z,99506.85
2019-01-20T01:35:37.542Z,99510.48
2019-01-20T01:38:07.218Z,99511.27
2019-01-20T01:40:36.608Z,99508.72
2019-01-20T01:43:06.629Z,99504.79
2019-01-20T01:45:36.412Z,99507.39
2019-01-20T01:48:06.869Z,99505.37
2019-01-20T01:50:36.572Z,99505.47
2019-01-20T01:53:06.045Z,99505.63
2019-01-20T01:55:35.426Z,99503.76
2019-01-20T01:58:04.886Z,99513.55
2019-01-20T02:00:34.608Z,99515.25
2019-01-20T02:03:04.032Z,99518.20
2019-01-20T02:05:33.382Z,99517.80
2019-01-20T02:08:02.770Z,99523.19
2019-01-20T02:10:32.165Z,99524.49
2019-01-20T02:13:01.543Z,99521.27
2019-01-20T02:15:31.063Z,99522.42
2019-01-20T02:18:00.482Z,99525.73
2019-01-20T02:20:32.819Z,99530.61
2019-01-20T02:23:02.197Z,99527.61
2019-01-20T02:25:31.590Z,99534.14
2019-01-20T02:28:01.035Z,99534.18
2019-01-20T02:30:30.880Z,99534.18
2019-01-20T02:33:00.610Z,99529.78
2019-01-20T02:35:29.979Z,99530.03
2019-01-20T02:37:59.452Z,99526.16
2019-01-20T02:40:28.927Z,99528.80
2019-01-20T02:42:58.350Z,99518.80
2019-01-20T02:45:27.706Z,99522.44
2019-01-20T02:48:00.064Z,99519.17
2019-01-20T02:50:29.493Z,99522.78
2019-01-20T02:52:58.839Z,99518.60
2019-01-20T02:55:28.290Z,99518.91
2019-01-20T02:57:57.831Z,99520.31
2019-01-20T03:00:27.301Z,99521.50
2019-01-20T03:02:56.744Z,99515.91
2019-01-20T03:05:26.219Z,99519.38
2019-01-20T03:07:55.589Z,99513.87
2019-01-20T03:10:24.976Z,99508.66
2019-01-20T03:12:54.438Z,99506.10
2019-01-20T03:15:23.889Z,99508.95
2019-01-20T03:17:53.231Z,99501.91
2019-01-20T03:20:23.656Z,99505.86
2019-01-20T03:22:53.015Z,99501.76
2019-01-20T03:25:22.743Z,99503.88
2019-01-20T03:27:52.150Z,99507.05
2019-01-20T03:30:23.281Z,99508.86
2019-01-20T03:32:53.345Z,99510.36
2019-01-20T03:35:25.081Z,99511.30
2019-01-20T03:37:54.596Z,99509.63
2019-01-20T03:40:24.087Z,99509.12
2019-01-20T03:42:53.486Z,99513.95
2019-01-20T03:45:22.860Z,99511.19
2019-01-20T03:47:52.568Z,99509.43
2019-01-20T03:50:23.377Z,99507.97
2019-01-20T03:52:52.762Z,99509.89
2019-01-20T03:55:22.147Z,99503.47
2019-01-20T03:57:51.554Z,99504.16
2019-01-20T04:00:23.634Z,99511.86
2019-01-20T04:02:58.490Z,99511.55
2019-01-20T04:05:27.934Z,99508.08
2019-01-20T04:07:57.499Z,99511.20
2019-01-20T04:10:26.964Z,99511.20
2019-01-20T04:12:56.423Z,99519.69
2019-01-20T04:15:25.917Z,99518.45
2019-01-20T04:17:55.389Z,99521.75
2019-01-20T04:20:24.889Z,99517.66
2019-01-20T04:22:54.291Z,99520.61
2019-01-20T04:25:23.797Z,99517.20
2019-01-20T04:27:53.222Z,99525.78
2019-01-20T04:30:22.588Z,99514.61
2019-01-20T04:32:52.052Z,99510.52
2019-01-20T04:35:21.437Z,99514.33
2019-01-20T04:37:50.829Z,99510.61
2019-01-20T04:40:22.307Z,99509.72
2019-01-20T04:42:51.724Z,99512.52
2019-01-20T04:45:21.529Z,99506.56
2019-01-20T04:47:50.934Z,99512.37
2019-01-20T04:50:23.134Z,99514.17
2019-01-20T04:52:52.792Z,99513.41
2019-01-20T04:55:22.311Z,99513.96
2019-01-20T04:57:53.440Z,99506.77
2019-01-20T05:00:25.713Z,99517.64
2019-01-20T05:02:55.806Z,99517.02
2019-01-20T05:05:25.601Z,99513.55
2019-01-20T05:07:55.074Z,99516.66
2019-01-20T05:10:24.546Z,99519.02
2019-01-20T05:12:53.927Z,99525.13
2019-01-20T05:15:24.421Z,99531.66
2019-01-20T05:17:53.809Z,99525.02
2019-01-20T05:20:23.350Z,99528.91
2019-01-20T05:22:52.786Z,99525.70
2019-01-20T05:25:22.114Z,99532.73
2019-01-20T05:27:51.809Z,99540.09
2019-01-20T05:30:25.651Z,99542.36
2019-01-20T05:32:55.035Z,99542.52
2019-01-20T05:35:24.750Z,99539.97
2019-01-20T05:37:54.118Z,99529.73
2019-01-20T05:40:23.582Z,99540.44
2019-01-20T05:42:52.963Z,99537.33
2019-01-20T05:45:24.753Z,99533.39
2019-01-20T05:47:54.146Z,99538.45
2019-01-20T05:50:23.620Z,99534.36
2019-01-20T05:52:52.992Z,99539.03
2019-01-20T05:55:22.398Z,99541.61
2019-01-20T05:57:51.773Z,99544.24
2019-01-20T06:00:27.770Z,99547.29
2019-01-20T06:02:57.168Z,99553.53
2019-01-20T06:05:26.582Z,99558.59
2019-01-20T06:07:56.038Z,99554.41
2019-01-20T06:10:25.433Z,99566.52
2019-01-20T06:12:54.823Z,99567.02
2019-01-20T06:15:24.647Z,99565.77
2019-01-20T06:17:54.344Z,99566.70
2019-01-20T06:20:23.799Z,99566.77
2019-01-20T06:22:53.599Z,99566.86
2019-01-20T06:25:23.069Z,99570.68
2019-01-20T06:28:11.754Z,99574.91
2019-01-20T06:30:41.134Z,99575.16
2019-01-20T06:33:10.539Z,99585.08
2019-01-20T06:35:40.244Z,99579.50
2019-01-20T06:38:09.750Z,99579.44
2019-01-20T06:40:39.208Z,99585.23
2019-01-20T06:43:08.969Z,99593.62
2019-01-20T06:45:38.459Z,99594.02
2019-01-20T06:48:08.090Z,99596.81
2019-01-20T06:50:37.495Z,99599.09
2019-01-20T06:53:06.915Z,99603.12
2019-01-20T06:55:36.567Z,99603.80
2019-01-20T06:58:06.138Z,99601.72
2019-01-20T07:00:36.544Z,99607.30
2019-01-20T07:03:06.086Z,99606.16
2019-01-20T07:05:35.713Z,99612.92
2019-01-20T07:08:05.292Z,99615.03
2019-01-20T07:10:35.233Z,99613.76
2019-01-20T07:13:09.158Z,99619.91
2019-01-20T07:15:36.029Z,99627.32
2019-01-20T07:18:05.539Z,99621.61
2019-01-20T07:20:34.984Z,99625.42
2019-01-20T07:23:04.381Z,99634.46
2019-01-20T07:25:33.767Z,99637.91
2019-01-20T07:28:03.280Z,99641.01
2019-01-20T07:30:32.691Z,99640.07
2019-01-20T07:33:04.238Z,99651.37
2019-01-20T07:35:33.727Z,99657.89
2019-01-20T07:38:03.461Z,99648.43
2019-01-20T07:40:33.067Z,99654.17
2019-01-20T07:43:02.484Z,99651.37
2019-01-20T07:45:31.933Z,99652.75
2019-01-20T07:48:01.402Z,99658.34
2019-01-20T07:50:30.894Z,99661.59
2019-01-20T07:53:00.350Z,99664.98
2019-01-20T07:55:29.882Z,99676.07
2019-01-20T07:58:01.146Z,99679.09
2019-01-20T08:00:31.169Z,99677.56
2019-01-20T08:03:00.642Z,99677.80
2019-01-20T08:05:30.386Z,99680.87
2019-01-20T08:08:01.545Z,99678.30
2019-01-20T08:10:31.330Z,99691.03
2019-01-20T08:13:00.816Z,99692.58
2019-01-20T08:15:30.284Z,99693.64
2019-01-20T08:18:00.022Z,99695.63
2019-01-20T08:20:29.491Z,99698.36
2019-01-20T08:22:58.998Z,99701.77
2019-01-20T08:25:28.421Z,99709.63
2019-01-20T08:27:57.801Z,99710.70
2019-01-20T08:30:28.789Z,99712.64
2019-01-20T08:32:58.511Z,99706.13
2019-01-20T08:35:28.231Z,99715.67
2019-01-20T08:37:57.657Z,99721.61
2019-01-20T08:40:29.253Z,99716.13
2019-01-20T08:42:58.670Z,99720.06
2019-01-20T08:45:45.002Z,99725.53
2019-01-20T08:48:22.173Z,99728.17
2019-01-20T08:50:51.702Z,99730.31
2019-01-20T08:53:21.342Z,99741.80
2019-01-20T08:55:50.706Z,99743.55
2019-01-20T08:58:20.836Z,99747.11
2019-01-20T09:00:58.416Z,99746.95
2019-01-20T09:03:30.905Z,99747.49
2019-01-20T09:06:02.450Z,99744.68
2019-01-20T09:08:32.067Z,99748.00
2019-01-20T09:11:01.564Z,99756.07
2019-01-20T09:13:31.312Z,99756.32
2019-01-20T09:16:00.752Z,99757.66
2019-01-20T09:18:30.266Z,99757.81
2019-01-20T09:20:59.707Z,99758.67
2019-01-20T09:23:29.192Z,99761.23
2019-01-20T09:25:58.558Z,99758.56
2019-01-20T09:28:28.481Z,99757.55
2019-01-20T09:30:58.015Z,99763.42
2019-01-20T09:33:27.696Z,99764.00
2019-01-20T09:35:58.187Z,99766.30
2019-01-20T09:38:27.903Z,99761.94
2019-01-20T09:40:57.411Z,99764.09
2019-01-20T09:43:27.000Z,99765.66
2019-01-20T09:45:56.708Z,99764.80
2019-01-20T09:48:27.141Z,99770.33
2019-01-20T09:50:56.656Z,99774.56
2019-01-20T09:53:26.078Z,99778.23
2019-01-20T09:55:55.577Z,99784.73
2019-01-20T09:58:28.733Z,99786.27
2019-01-20T10:01:02.979Z,99788.25
2019-01-20T10:03:32.655Z,99792.30
2019-01-20T10:06:02.231Z,99795.71
2019-01-20T10:08:31.760Z,99798.52
2019-01-20T10:11:01.306Z,99802.73
2019-01-20T10:13:30.735Z,99799.50
2019-01-20T10:16:00.151Z,99799.95
2019-01-20T10:18:33.227Z,99802.02
2019-01-20T10:21:02.784Z,99806.52
2019-01-20T10:23:35.458Z,99803.98
2019-01-20T10:26:05.460Z,99805.98
2019-01-20T10:28:41.110Z,99802.11
2019-01-20T10:31:10.858Z,99801.73
2019-01-20T10:33:40.226Z,99804.84
2019-01-20T10:36:09.930Z,99806.02
2019-01-20T10:38:39.319Z,99810.59
2019-01-20T10:41:08.856Z,99809.39
2019-01-20T10:43:38.346Z,99812.00
2019-01-20T10:46:08.127Z,99808.36
2019-01-20T10:48:44.415Z,99811.53
2019-01-20T10:51:14.034Z,99810.59
2019-01-20T10:54:02.778Z,99815.28
2019-01-20T10:56:32.396Z,99811.04
2019-01-20T10:59:01.752Z,99809.84
2019-01-20T11:01:31.456Z,99812.38
2019-01-20T11:04:00.822Z,99805.63
2019-01-20T11:12:33.024Z,99825.70
2019-01-20T11:15:02.958Z,99822.98
2019-01-20T11:17:32.629Z,99819.55
2019-01-20T11:20:02.960Z,99823.16
2019-01-20T11:22:32.542Z,99812.09
2019-01-20T11:25:02.280Z,99819.46
2019-01-20T11:27:32.038Z,99824.22
2019-01-20T11:30:01.733Z,99817.41
2019-01-20T11:32:32.921Z,99811.20
2019-01-20T11:35:02.894Z,99813.88
2019-01-20T11:37:32.753Z,99817.77
2019-01-20T11:40:02.516Z,99818.42
2019-01-20T11:42:32.188Z,99824.64
2019-01-20T11:45:01.860Z,99819.88
2019-01-20T11:47:41.796Z,99821.98
2019-01-20T11:50:15.213Z,99819.19
2019-01-20T11:52:47.800Z,99822.66
2019-01-20T11:55:21.557Z,99822.66
2019-01-20T11:58:02.958Z,99817.10
2019-01-20T12:01:00.528Z,99819.64
2019-01-20T12:03:07.905Z,99822.70
2019-01-20T12:05:37.699Z,99821.27
2019-01-20T12:08:07.600Z,99822.11
2019-01-20T12:10:37.058Z,99814.35
2019-01-20T12:13:08.103Z,99817.60
2019-01-20T12:15:37.643Z,99817.00
2019-01-20T12:18:07.455Z,99822.31
2019-01-20T12:20:36.842Z,99819.33
2019-01-20T12:23:06.353Z,99820.16
2019-01-20T12:25:35.788Z,99822.77
2019-01-20T12:28:05.506Z,99822.33
2019-01-20T12:30:39.777Z,99816.69
2019-01-20T12:33:09.350Z,99819.61
2019-01-20T12:35:38.716Z,99811.69
2019-01-20T12:38:08.156Z,99827.14
2019-01-20T12:40:41.550Z,99823.78
2019-01-20T12:43:11.377Z,99822.77
2019-01-20T12:45:41.089Z,99816.48
2019-01-20T12:48:12.426Z,99822.53
2019-01-20T12:50:44.394Z,99816.48
2019-01-20T12:53:13.647Z,99815.59
2019-01-20T12:55:43.139Z,99812.81
2019-01-20T12:58:15.204Z,99818.59
2019-01-20T13:00:44.982Z,99822.16
2019-01-20T13:03:16.964Z,99822.03
2019-01-20T13:05:48.575Z,99820.36
2019-01-20T13:08:18.053Z,99825.05
2019-01-20T13:10:47.670Z,99828.27
2019-01-20T13:13:20.411Z,99830.84
2019-01-20T13:15:49.882Z,99826.85
2019-01-20T13:18:19.292Z,99822.66
2019-01-20T13:20:49.807Z,99830.95
2019-01-20T13:23:40.630Z,99835.01
2019-01-20T13:26:11.772Z,99836.21
2019-01-20T13:28:44.359Z,99829.41
2019-01-20T13:31:14.907Z,99826.61
2019-01-20T13:33:49.006Z,99820.45
2019-01-20T13:36:21.039Z,99833.14
2019-01-20T13:38:50.639Z,99830.09
2019-01-20T13:41:20.299Z,99830.62
2019-01-20T13:43:51.281Z,99836.86
2019-01-20T13:46:20.838Z,99841.64
2019-01-20T13:48:53.461Z,99844.83
2019-01-20T13:51:24.265Z,99840.56
2019-01-20T13:53:56.366Z,99833.59
2019-01-20T13:56:25.993Z,99843.23
2019-01-20T13:58:55.708Z,99841.83
2019-01-20T14:01:25.330Z,99839.97
2019-01-20T14:03:54.872Z,99844.04
2019-01-20T14:06:26.473Z,99841.13
2019-01-20T14:08:56.262Z,99843.81
2019-01-20T14:11:28.368Z,99840.86
2019-01-20T14:13:58.000Z,99849.67
2019-01-20T14:16:31.672Z,99844.52
2019-01-20T14:19:01.865Z,99848.19
2019-01-20T14:21:31.472Z,99846.59
2019-01-20T14:24:02.679Z,99850.05
2019-01-20T14:26:32.128Z,99851.73
2019-01-20T14:29:01.676Z,99852.34
2019-01-20T14:31:31.311Z,99857.23
2019-01-20T14:34:01.143Z,99859.02
2019-01-20T14:36:30.801Z,99862.33
2019-01-20T14:39:01.742Z,99861.45
2019-01-20T14:41:31.340Z,99867.23
2019-01-20T14:44:02.169Z,99863.20
2019-01-20T14:46:32.590Z,99866.45
2019-01-20T14:49:01.977Z,99873.37
2019-01-20T14:51:31.361Z,99875.03
2019-01-20T14:54:00.993Z,99875.69
2019-01-20T14:56:30.385Z,99878.70
2019-01-20T14:58:59.767Z,99881.76
2019-01-20T15:01:29.147Z,99890.14
2019-01-20T15:03:58.703Z,99890.88
2019-01-20T15:06:32.960Z,99888.66
2019-01-20T15:09:02.539Z,99889.88
2019-01-20T15:11:31.984Z,99892.34
2019-01-20T15:14:01.651Z,99893.30
2019-01-20T15:16:31.373Z,99890.96
2019-01-20T15:19:00.756Z,99897.52
2019-01-20T15:21:31.536Z,99903.27
2019-01-20T15:24:01.776Z,99908.14
2019-01-20T15:27:05.072Z,99908.80
2019-01-20T15:29:18.181Z,99910.40
2019-01-20T15:31:54.082Z,99914.20
2019-01-20T15:34:26.354Z,99910.95
2019-01-20T15:37:00.444Z,99917.41
2019-01-20T15:39:32.319Z,99921.20
2019-01-20T15:42:05.696Z,99922.58
2019-01-20T15:44:36.835Z,99929.55
2019-01-20T15:47:11.549Z,99926.98
2019-01-20T15:49:43.589Z,99931.98
2019-01-20T15:52:15.417Z,99933.11
2019-01-20T15:54:48.580Z,99939.27
2019-01-20T15:57:24.483Z,99940.33
2019-01-20T15:59:59.767Z,99937.00
2019-01-20T16:02:30.038Z,99944.97
2019-01-20T16:04:59.897Z,99944.99
2019-01-20T16:07:35.357Z,99945.52
2019-01-20T16:11:17.393Z,99949.92
2019-01-20T16:12:48.510Z,99954.64
2019-01-20T16:15:25.528Z,99967.42
2019-01-20T16:18:00.983Z,99961.56
2019-01-20T16:20:34.483Z,99969.81
2019-01-20T16:23:08.940Z,99968.28
2019-01-20T16:25:40.908Z,99972.41
2019-01-20T16:28:21.161Z,99971.20
2019-01-20T16:30:50.937Z,99977.96
2019-01-20T16:33:24.880Z,99977.05
2019-01-20T16:36:00.137Z,99974.47
2019-01-20T16:39:17.789Z,99975.69
2019-01-20T16:41:32.637Z,99971.03
2019-01-20T16:44:12.033Z,99976.05
2019-01-20T16:46:46.212Z,99983.92
2019-01-20T16:49:31.902Z,99995.43
2019-01-20T16:52:06.586Z,99994.35
2019-01-20T16:54:44.552Z,99988.63
2019-01-20T16:57:25.062Z,99992.86
2019-01-20T17:00:12.781Z,99995.05
2019-01-20T17:02:51.978Z,99997.66
2019-01-20T17:05:26.881Z,99997.95
2019-01-20T17:08:11.007Z,100001.39
2019-01-20T17:10:44.847Z,100000.14
2019-01-20T17:13:16.174Z,100008.36
2019-01-20T17:16:00.696Z,100013.80
2019-01-20T17:18:33.488Z,100014.96
2019-01-20T17:21:03.480Z,100017.87
2019-01-20T17:23:39.948Z,100022.55
2019-01-20T17:28:40.715Z,100025.69
2019-01-20T17:31:10.353Z,100030.42
2019-01-20T17:33:39.920Z,100037.86
2019-01-20T17:36:11.165Z,100033.70
2019-01-20T17:38:40.676Z,100043.95
2019-01-20T17:41:10.489Z,100041.78
2019-01-20T17:43:39.962Z,100042.08
2019-01-20T17:46:09.564Z,100043.80
2019-01-20T17:48:39.043Z,100046.40
2019-01-20T17:51:08.465Z,100046.50
2019-01-20T17:53:38.069Z,100048.16
2019-01-20T17:56:07.588Z,100045.52
2019-01-20T17:58:37.056Z,100050.30
2019-01-20T18:01:26.452Z,100052.06
2019-01-20T18:03:56.009Z,100052.95
2019-01-20T18:06:25.556Z,100055.86
2019-01-20T18:08:55.059Z,100051.08
2019-01-20T18:11:24.513Z,100059.82
2019-01-20T18:13:55.873Z,100059.66
2019-01-20T18:16:25.631Z,100069.12
2019-01-20T18:18:55.559Z,100067.87
2019-01-20T18:21:25.136Z,100073.59
2019-01-20T18:23:54.665Z,100076.55
2019-01-20T18:26:24.679Z,100073.42
2019-01-20T18:28:54.263Z,100078.14
2019-01-20T18:31:24.760Z,100080.38
2019-01-20T18:33:54.718Z,100078.70
2019-01-20T18:36:24.714Z,100079.47
2019-01-20T18:39:06.028Z,100080.28
2019-01-20T18:41:42.225Z,100080.83
2019-01-20T18:44:16.483Z,100086.32
2019-01-20T18:46:46.098Z,100092.13
2019-01-20T18:49:19.271Z,100095.31
2019-01-20T18:51:49.377Z,100094.78
2019-01-20T18:54:24.737Z,100095.38
2019-01-20T18:56:54.251Z,100102.61
2019-01-20T18:59:23.748Z,100098.12
2019-01-20T19:01:53.254Z,100101.11
2019-01-20T19:04:23.027Z,100099.42
2019-01-20T19:06:52.556Z,100100.29
2019-01-20T19:09:26.299Z,100109.97
2019-01-20T19:11:56.072Z,100102.59
2019-01-20T19:14:27.947Z,100111.48
2019-01-20T19:16:59.967Z,100108.84
2019-01-20T19:19:36.811Z,100116.34
2019-01-20T19:22:06.785Z,100120.55
2019-01-20T19:24:41.057Z,100120.55
2019-01-20T19:27:11.379Z,100127.80
2019-01-20T19:29:41.294Z,100128.17
2019-01-20T19:32:11.272Z,100132.22
2019-01-20T19:34:40.890Z,100131.69
2019-01-20T19:37:12.079Z,100133.86
2019-01-20T19:39:42.745Z,100138.08
2019-01-20T19:42:14.652Z,100137.33
2019-01-20T19:44:44.706Z,100141.15
2019-01-20T19:47:16.939Z,100140.36
2019-01-20T19:49:46.393Z,100145.21
2019-01-20T19:52:15.967Z,100141.56
2019-01-20T19:54:45.498Z,100147.74
2019-01-20T19:57:15.730Z,100145.96
2019-01-20T19:59:45.376Z,100148.04
2019-01-20T20:02:14.926Z,100152.64
2019-01-20T20:04:46.321Z,100160.48
2019-01-20T20:07:16.048Z,100159.09
2019-01-20T20:09:46.168Z,100157.62
2019-01-20T20:12:15.989Z,100160.58
2019-01-20T20:14:45.585Z,100166.64
2019-01-20T20:17:15.335Z,100166.42
2019-01-20T20:19:45.108Z,100169.53
2019-01-20T20:22:14.559Z,100177.06
2019-01-20T20:24:44.068Z,100183.39
2019-01-20T20:27:13.591Z,100183.14
2019-01-20T20:29:44.980Z,100180.17
2019-01-20T20:32:14.698Z,100184.88
2019-01-20T20:34:44.548Z,100194.11
2019-01-20T20:37:13.995Z,100187.59
2019-01-20T20:39:43.460Z,100191.88
2019-01-20T20:42:12.971Z,100187.75
2019-01-20T20:44:42.728Z,100193.13
2019-01-20T20:47:12.464Z,100197.50
2019-01-20T20:49:42.570Z,100196.56
2019-01-20T20:52:11.954Z,100202.62
2019-01-20T20:54:41.355Z,100208.39
2019-01-20T20:57:10.887Z,100211.88
2019-01-20T20:59:40.290Z,100211.50
2019-01-20T21:02:09.668Z,100215.22
2019-01-20T21:04:39.334Z,100219.91
2019-01-20T21:07:08.759Z,100215.08
2019-01-20T21:09:38.273Z,100214.93
2019-01-20T21:12:07.738Z,100215.55
2019-01-20T21:14:37.144Z,100220.06
2019-01-20T21:17:06.639Z,100214.52
2019-01-20T21:19:36.050Z,100221.75
2019-01-20T21:22:05.765Z,100227.98
2019-01-20T21:24:35.242Z,100229.40
2019-01-20T21:27:04.677Z,100234.22
2019-01-20T21:29:34.147Z,100234.22
2019-01-20T21:32:04.088Z,100236.55
2019-01-20T21:34:33.519Z,100246.34
2019-01-20T21:37:22.812Z,100248.06
2019-01-20T21:39:52.480Z,100244.55
2019-01-20T21:42:21.846Z,100241.77
2019-01-20T21:44:51.220Z,100246.65
2019-01-20T21:47:20.597Z,100250.09
2019-01-20T21:49:49.973Z,100253.11
2019-01-20T21:52:19.619Z,100254.57
2019-01-20T21:54:48.987Z,100260.11
2019-01-20T21:57:18.373Z,100262.36
2019-01-20T21:59:47.735Z,100267.31
2019-01-20T22:02:17.144Z,100266.68
2019-01-20T22:04:46.863Z,100265.84
2019-01-20T22:07:16.305Z,100272.97
2019-01-20T22:09:46.058Z,100275.67
2019-01-20T22:12:15.732Z,100273.66
2019-01-20T22:14:45.099Z,100274.88
2019-01-20T22:17:14.480Z,100279.34
2019-01-20T22:19:43.870Z,100277.47
2019-01-20T22:22:13.270Z,100286.08
2019-01-20T22:24:42.645Z,100291.66
2019-01-20T22:27:12.020Z,100297.73
2019-01-20T22:29:41.627Z,100301.90
2019-01-20T22:32:11.260Z,100305.62
2019-01-20T22:34:40.635Z,100311.43
2019-01-20T22:37:10.008Z,100314.61
2019-01-20T22:39:39.380Z,100310.88
2019-01-20T22:42:08.773Z,100311.79
2019-01-20T22:44:38.392Z,100321.95
2019-01-20T22:47:07.772Z,100319.02
2019-01-20T22:49:37.192Z,100318.08
2019-01-20T22:52:06.880Z,100315.09
2019-01-20T22:54:36.256Z,100318.22
2019-01-20T22:57:05.875Z,100321.08
2019-01-20T22:59:35.497Z,100321.08
2019-01-20T23:02:05.513Z,100319.45
2019-01-20T23:04:35.219Z,100321.41
2019-01-20T23:07:05.578Z,100322.86
2019-01-20T23:09:35.626Z,100324.05
2019-01-20T23:12:06.092Z,100325.42
2019-01-20T23:14:35.810Z,100325.91
2019-01-20T23:17:07.986Z,100321.55
2019-01-20T23:19:37.230Z,100319.36
2019-01-20T23:22:06.868Z,100310.80
2019-01-20T23:24:36.244Z,100314.22
2019-01-20T23:27:06.535Z,100324.45
2019-01-20T23:29:36.253Z,100317.34
2019-01-20T23:32:06.250Z,100325.63
2019-01-20T23:34:36.338Z,100327.73
2019-01-20T23:37:06.816Z,100323.68
2019-01-20T23:39:36.426Z,100332.37
2019-01-20T23:42:06.474Z,100329.29
2019-01-20T23:44:36.400Z,100330.38
2019-01-20T23:47:06.453Z,100324.77
2019-01-20T23:49:36.485Z,100330.96
2019-01-20T23:52:06.496Z,100332.50
2019-01-20T23:54:36.582Z,100329.92
2019-01-20T23:57:06.671Z,100333.02
2019-01-20T23:59:36.638Z,100329.99
